Terminal Aerodrome Forecast
Issued by NWS

Home | Current Version | Previous Version | Graphics & Text | Print | Product List | Glossary On
Versions: 1 2 3 4 5 6 7 8 9 10 11 12 13 14 15 16 17
000
FTUS43 KTOP 201517 AAC
TAFFOE
TAF AMD
KFOE 201517Z 2015/2112 02005KT P6SM VCTS SCT015CB BKN040
     FM201600 36005KT P6SM -RA VCTS SCT015CB OVC020
     FM202300 01005KT P6SM OVC030
     FM210700 34005KT P6SM OVC010=

USA.gov is the U.S. government's official web portal to all federal, state and local government web resources and services.